Terminal Aerodrome Forecast
Issued by NWS Pocatello, ID

Home | Current Version | Previous Version | Text Only | Print | Product List | Glossary On
Versions: 1 2 3 4 5 6 7 8 9 10 11 12 13 14 15 16 17 18 19 20
000
FTUS45 KPIH 251100
TAFBYI
TAF
KBYI 251123Z 2512/2612 VRB03KT 6SM BR FEW008 BKN015 OVC035
     FM251300 VRB03KT 4SM BR FEW004 BKN008 OVC015
     FM251600 VRB06KT P6SM SCT025 BKN035 OVC110
     FM260600 VRB04KT P6SM OVC025=

USA.gov is the U.S. government's official web portal to all federal, state and local government web resources and services.